Time;durP1;ratioP1;P1;durP2;ratioP2;P2;SDS_P1;SDS_P2;PMS_P1;PMS_P2;Temp;Humidity;BMP_temperature;BMP_pressure;BME280_temperature;BME280_humidity;BME280_pressure;Samples;Min_cycle;Max_cycle;Signal;HPM_P1;HPM_P2
2023/05/07 00:02:26;;;;;;;3.70;1.80;;;;;;;7.33;71.53;101573.05;105999;1256;60532;-88
2023/05/07 00:04:53;;;;;;;4.00;1.60;;;;;;;7.30;71.60;101574.73;106038;1256;61437;-85
2023/05/07 00:07:20;;;;;;;2.20;1.90;;;;;;;7.27;72.11;101576.39;106070;1256;74631;-84
2023/05/07 00:09:47;;;;;;;2.60;2.10;;;;;;;7.22;72.30;101578.77;106252;1255;63950;-86
2023/05/07 00:12:14;;;;;;;2.10;1.80;;;;;;;7.18;72.68;101580.98;106160;1256;73595;-88
2023/05/07 00:14:41;;;;;;;1.80;1.10;;;;;;;7.14;72.92;101574.66;106088;1255;60779;-85
2023/05/07 00:17:08;;;;;;;5.80;1.30;;;;;;;7.10;73.29;101569.23;106022;1253;61563;-84
2023/05/07 00:19:35;;;;;;;3.20;1.40;;;;;;;7.07;73.28;101572.45;106021;1254;76118;-86
2023/05/07 00:22:02;;;;;;;5.90;1.40;;;;;;;7.07;73.17;101577.84;106074;1254;63829;-86
2023/05/07 00:24:29;;;;;;;3.60;1.70;;;;;;;7.04;73.45;101576.02;105900;1252;74754;-85
2023/05/07 00:26:57;;;;;;;3.20;1.70;;;;;;;6.99;73.79;101574.59;105897;1256;60431;-86
2023/05/07 00:29:25;;;;;;;4.50;2.50;;;;;;;6.94;73.94;101577.01;105849;1254;61089;-87
2023/05/07 00:31:53;;;;;;;2.80;2.00;;;;;;;6.90;73.95;101583.39;105814;1254;74821;-85
2023/05/07 00:34:21;;;;;;;3.90;1.40;;;;;;;6.87;73.93;101582.09;105916;1255;64689;-86
2023/05/07 00:36:48;;;;;;;2.10;1.40;;;;;;;6.83;74.30;101579.05;105924;1255;73860;-85
2023/05/07 00:39:14;;;;;;;2.10;1.60;;;;;;;6.80;74.26;101582.96;105935;1254;60622;-85
2023/05/07 00:41:41;;;;;;;2.70;1.40;;;;;;;6.77;74.35;101585.66;105973;1256;60553;-85
2023/05/07 00:44:11;;;;;;;3.90;1.70;;;;;;;6.75;74.46;101584.86;106087;1252;73617;-86
2023/05/07 00:46:39;;;;;;;2.30;1.90;;;;;;;6.73;74.60;101580.58;106192;1254;64624;-86
2023/05/07 00:49:06;;;;;;;2.70;1.50;;;;;;;6.71;74.69;101574.89;106321;1253;72591;-87
2023/05/07 00:51:33;;;;;;;2.70;1.70;;;;;;;6.69;74.91;101578.09;106156;1254;60892;-85
2023/05/07 00:54:01;;;;;;;2.10;1.90;;;;;;;6.65;74.99;101581.14;106002;1255;60449;-85
2023/05/07 00:56:28;;;;;;;1.70;1.50;;;;;;;6.62;75.30;101584.69;106038;1254;73814;-85
2023/05/07 00:58:55;;;;;;;2.50;2.30;;;;;;;6.58;75.47;101587.25;105933;1256;64772;-86
2023/05/07 01:01:22;;;;;;;2.40;1.60;;;;;;;6.56;75.82;101584.71;105920;1257;74052;-85
2023/05/07 01:03:49;;;;;;;1.90;1.40;;;;;;;6.55;75.84;101585.61;105952;1256;60655;-85
2023/05/07 01:06:17;;;;;;;5.60;2.00;;;;;;;6.50;76.09;101583.98;105988;1253;61313;-85
2023/05/07 01:08:44;;;;;;;7.00;2.30;;;;;;;6.46;76.16;101586.52;105961;1252;73997;-85
2023/05/07 01:11:11;;;;;;;6.40;2.30;;;;;;;6.42;75.93;101591.85;105981;1253;64218;-84
2023/05/07 01:13:38;;;;;;;2.70;2.10;;;;;;;6.39;75.98;101591.58;106084;1257;73398;-86
2023/05/07 01:16:06;;;;;;;2.00;1.70;;;;;;;6.37;76.19;101590.77;105922;1256;60568;-86
2023/05/07 01:18:33;;;;;;;2.60;1.70;;;;;;;6.35;76.53;101589.79;105873;1254;60913;-85
2023/05/07 01:21:01;;;;;;;2.80;2.20;;;;;;;6.32;76.42;101592.84;105829;1254;74818;-85
2023/05/07 01:23:28;;;;;;;4.60;2.10;;;;;;;6.28;76.93;101586.15;105903;1253;63599;-85
2023/05/07 01:25:55;;;;;;;3.80;2.30;;;;;;;6.24;77.17;101585.38;105996;1253;73465;-84
2023/05/07 01:28:25;;;;;;;2.80;1.80;;;;;;;6.20;77.25;101588.80;106123;1256;60550;-85
2023/05/07 01:30:56;;;;;;;4.50;1.80;;;;;;;6.16;77.55;101589.05;105900;1257;60774;-86
2023/05/07 01:33:23;;;;;;;2.60;1.90;;;;;;;6.13;77.35;101586.00;106058;1256;74891;-86
2023/05/07 01:35:53;;;;;;;2.40;1.90;;;;;;;6.11;77.70;101586.76;108472;1253;63850;-84
2023/05/07 01:38:21;;;;;;;3.00;1.80;;;;;;;6.09;77.92;101581.09;106795;1253;72215;-87
2023/05/07 01:40:48;;;;;;;5.30;2.50;;;;;;;6.08;77.84;101579.55;106269;1253;60549;-84
2023/05/07 01:43:16;;;;;;;3.20;2.40;;;;;;;6.08;78.05;101577.98;107024;1257;60434;-83
2023/05/07 01:45:44;;;;;;;3.20;2.10;;;;;;;6.06;77.89;101576.32;106089;1257;74899;-86
2023/05/07 01:48:11;;;;;;;3.90;2.40;;;;;;;6.01;78.22;101573.83;106037;1256;64849;-86
2023/05/07 01:50:38;;;;;;;3.40;2.40;;;;;;;5.98;78.52;101578.06;105912;1253;72728;-84
2023/05/07 01:53:05;;;;;;;2.70;1.60;;;;;;;5.96;78.46;101580.36;105999;1253;60717;-85
2023/05/07 01:55:32;;;;;;;2.60;2.10;;;;;;;5.93;78.48;101574.00;105999;1255;61190;-86
2023/05/07 01:57:59;;;;;;;4.70;2.50;;;;;;;5.92;78.86;101570.22;106038;1253;74752;-85
2023/05/07 02:00:27;;;;;;;4.90;2.00;;;;;;;5.90;79.03;101570.77;106208;1254;64968;-85
2023/05/07 02:02:54;;;;;;;4.60;2.30;;;;;;;5.89;79.44;101568.55;106218;1253;72472;-85
2023/05/07 02:05:32;;;;;;;4.50;1.90;;;;;;;5.88;79.18;101565.27;106262;1256;61385;-84
2023/05/07 02:08:05;;;;;;;3.80;2.00;;;;;;;5.88;79.49;101563.70;106568;1253;61098;-84
2023/05/07 02:10:33;;;;;;;4.20;2.30;;;;;;;5.85;79.44;101565.70;106310;1252;74814;-84
2023/05/07 02:13:01;;;;;;;2.30;1.60;;;;;;;5.80;79.63;101560.94;107705;1252;64994;-84
2023/05/07 02:15:29;;;;;;;2.80;2.30;;;;;;;5.78;79.78;101569.67;106520;1253;74287;-83
2023/05/07 02:18:02;;;;;;;3.50;1.70;;;;;;;5.77;80.22;101567.95;106190;1253;61210;-83
2023/05/07 02:20:29;;;;;;;2.50;1.70;;;;;;;5.76;79.95;101570.95;106588;1253;61337;-83
2023/05/07 02:22:56;;;;;;;2.70;1.80;;;;;;;5.75;80.08;101575.30;106110;1254;74278;-86
2023/05/07 02:25:23;;;;;;;2.10;1.80;;;;;;;5.73;80.15;101577.96;106011;1254;64552;-84
2023/05/07 02:27:50;;;;;;;2.70;1.80;;;;;;;5.71;80.33;101580.96;106091;1252;73857;-86
2023/05/07 02:30:18;;;;;;;2.00;1.80;;;;;;;5.69;80.43;101587.60;106131;1256;60468;-85
2023/05/07 02:32:45;;;;;;;2.00;1.40;;;;;;;5.68;80.15;101586.59;106270;1252;61178;-84
2023/05/07 02:35:12;;;;;;;3.40;1.90;;;;;;;5.68;79.99;101587.29;106436;1252;74741;-85
2023/05/07 02:37:39;;;;;;;2.80;1.90;;;;;;;5.68;80.10;101586.24;109785;1252;63999;-81
2023/05/07 02:43:48;;;;;;;3.80;2.20;;;;;;;5.70;80.40;101589.64;104657;1289;612010;-84
2023/05/07 02:46:16;;;;;;;3.00;1.60;;;;;;;5.68;80.43;101585.38;105664;1273;60746;-84
2023/05/07 02:48:46;;;;;;;3.30;2.40;;;;;;;5.67;80.54;101587.48;105622;1267;61324;-85
2023/05/07 02:51:13;;;;;;;2.30;1.80;;;;;;;5.69;80.32;101595.41;105597;1263;73056;-85
2023/05/07 02:53:41;;;;;;;4.50;2.30;;;;;;;5.70;80.40;101597.13;105600;1266;63953;-84
2023/05/07 02:56:09;;;;;;;3.10;1.90;;;;;;;5.69;80.28;101602.01;104803;1267;795202;-83
2023/05/07 02:58:36;;;;;;;2.70;1.80;;;;;;;5.70;80.16;101602.51;105602;1261;59588;-85
2023/05/07 03:01:03;;;;;;;2.50;1.90;;;;;;;5.69;80.17;101599.91;105694;1263;60687;-84
2023/05/07 03:03:35;;;;;;;3.40;2.30;;;;;;;5.68;79.99;101599.23;105623;1260;71929;-85
2023/05/07 03:06:03;;;;;;;3.30;2.60;;;;;;;5.68;79.83;101598.55;105801;1261;63760;-85
2023/05/07 03:08:30;;;;;;;6.70;2.70;;;;;;;5.67;79.78;101598.77;105698;1263;73376;-84
2023/05/07 03:13:12;;;;;;;3.10;2.40;;;;;;;5.69;79.82;101605.65;102889;1293;600050;-86
2023/05/07 03:15:40;;;;;;;5.80;2.80;;;;;;;5.68;79.84;101610.01;105211;1269;61190;-86
2023/05/07 03:18:07;;;;;;;2.40;2.20;;;;;;;5.71;79.99;101606.63;105673;1271;61007;-85
2023/05/07 03:20:36;;;;;;;8.80;3.30;;;;;;;5.79;79.83;101602.46;105416;1260;73160;-85
2023/05/07 03:23:03;;;;;;;4.90;2.40;;;;;;;5.90;79.69;101607.23;105534;1260;64545;-87
2023/05/07 03:25:31;;;;;;;8.00;3.10;;;;;;;6.03;79.28;101610.60;105678;1260;73424;-86
2023/05/07 03:27:58;;;;;;;5.90;2.40;;;;;;;6.10;78.51;101609.70;105396;1260;797590;-85
2023/05/07 03:30:32;;;;;;;4.20;2.80;;;;;;;6.14;78.25;101607.19;106238;1260;61362;-86
2023/05/07 03:32:59;;;;;;;4.80;2.90;;;;;;;6.17;78.45;101615.94;106191;1253;74059;-84
2023/05/07 03:35:27;;;;;;;3.80;2.40;;;;;;;6.24;78.09;101615.95;106085;1259;65817;-86
2023/05/07 03:37:55;;;;;;;3.20;2.40;;;;;;;6.31;77.80;101615.60;106496;1258;73510;-85
2023/05/07 03:40:22;;;;;;;3.90;2.80;;;;;;;6.35;77.55;101613.60;105941;1260;60861;-85
2023/05/07 03:42:52;;;;;;;4.20;2.80;;;;;;;6.36;77.53;101610.59;105803;1254;61193;-86
2023/05/07 03:45:20;;;;;;;4.10;2.40;;;;;;;6.39;77.55;101611.53;106334;1253;75067;-85
2023/05/07 03:47:53;;;;;;;3.00;2.30;;;;;;;6.42;77.55;101612.34;105804;1261;65028;-83
2023/05/07 03:50:20;;;;;;;3.10;1.80;;;;;;;6.45;77.37;101618.35;106114;1254;73701;-85
2023/05/07 03:52:48;;;;;;;3.00;2.20;;;;;;;6.48;77.30;101620.18;106091;1257;59740;-85
2023/05/07 03:55:17;;;;;;;4.40;2.70;;;;;;;6.51;77.33;101618.02;106188;1256;61221;-84
2023/05/07 03:57:49;;;;;;;5.40;2.80;;;;;;;6.59;77.01;101621.27;106328;1258;75076;-83
2023/05/07 04:00:19;;;;;;;6.40;2.60;;;;;;;6.68;76.72;101617.91;106362;1258;65543;-84
2023/05/07 04:02:47;;;;;;;4.20;2.10;;;;;;;6.74;76.53;101616.85;105986;1264;74692;-85
2023/05/07 04:05:18;;;;;;;4.50;2.20;;;;;;;6.80;76.32;101617.20;105895;1255;60230;-87
2023/05/07 04:07:47;;;;;;;12.80;4.40;;;;;;;6.92;76.12;101622.11;106231;1260;62487;-84
2023/05/07 04:10:15;;;;;;;7.10;2.80;;;;;;;7.02;75.47;101618.83;106202;1254;72935;-87
2023/05/07 04:12:43;;;;;;;3.00;2.20;;;;;;;7.20;75.03;101616.23;106398;1253;65004;-84
2023/05/07 04:15:12;;;;;;;4.70;2.30;;;;;;;7.47;74.53;101612.10;106173;1255;74050;-85
2023/05/07 04:17:41;;;;;;;4.60;2.90;;;;;;;7.79;72.97;101608.67;106459;1254;60176;-86
2023/05/07 04:20:10;;;;;;;3.50;2.50;;;;;;;8.11;71.34;101609.88;106479;1256;61148;-84
2023/05/07 04:22:38;;;;;;;4.70;1.90;;;;;;;8.43;69.46;101614.37;106336;1253;74839;-86
2023/05/07 04:25:06;;;;;;;6.00;2.40;;;;;;;8.72;67.92;101612.83;106414;1256;65133;-88
2023/05/07 04:27:34;;;;;;;2.20;1.90;;;;;;;9.11;67.20;101613.63;106110;1258;73559;-87
2023/05/07 04:30:03;;;;;;;6.30;2.60;;;;;;;9.60;64.57;101608.77;106099;1259;60714;-86
2023/05/07 04:32:33;;;;;;;2.80;2.40;;;;;;;10.07;61.07;101608.77;106312;1260;61865;-85
2023/05/07 04:35:00;;;;;;;2.70;2.30;;;;;;;10.38;57.60;101613.42;106245;1258;74954;-86
2023/05/07 04:37:31;;;;;;;3.10;2.20;;;;;;;10.60;55.38;101607.95;106517;1259;64597;-86
2023/05/07 04:40:00;;;;;;;6.00;2.40;;;;;;;10.73;53.09;101609.61;106563;1254;73957;-84
2023/05/07 04:42:28;;;;;;;4.30;2.40;;;;;;;10.78;50.81;101605.38;106232;1255;61416;-85
2023/05/07 04:44:55;;;;;;;5.30;2.10;;;;;;;10.76;51.85;101600.71;106327;1259;62282;-86
2023/05/07 04:47:23;;;;;;;2.70;1.90;;;;;;;10.77;52.31;101608.40;106380;1253;73987;-86
2023/05/07 04:49:52;;;;;;;10.80;2.50;;;;;;;10.86;51.20;101611.50;106375;1259;65621;-86
2023/05/07 04:52:19;;;;;;;3.20;1.60;;;;;;;11.04;47.96;101600.36;106050;1260;74412;-87
2023/05/07 04:54:47;;;;;;;5.10;1.40;;;;;;;11.26;45.37;101600.89;106336;1260;61322;-86
2023/05/07 04:57:14;;;;;;;8.50;1.90;;;;;;;11.49;43.43;101600.35;106367;1259;61264;-85
2023/05/07 04:59:42;;;;;;;6.40;1.80;;;;;;;11.72;42.41;101599.95;106155;1260;72322;-85
2023/05/07 05:02:10;;;;;;;5.00;2.10;;;;;;;12.01;41.90;101599.55;106370;1255;63852;-88
2023/05/07 05:04:38;;;;;;;4.30;2.00;;;;;;;12.47;40.83;101599.14;106294;1254;73635;-87
2023/05/07 05:07:06;;;;;;;4.00;1.60;;;;;;;13.01;39.22;101597.81;106288;1255;61079;-87
2023/05/07 05:09:33;;;;;;;7.10;1.70;;;;;;;13.52;37.92;101593.48;106221;1260;62162;-85
2023/05/07 05:12:00;;;;;;;6.20;1.70;;;;;;;13.98;36.27;101593.09;106853;1254;74801;-84
2023/05/07 05:14:29;;;;;;;13.70;1.70;;;;;;;14.36;35.81;101595.56;106871;1259;64954;-85
2023/05/07 05:16:56;;;;;;;6.90;1.80;;;;;;;14.79;35.58;101597.08;106403;1260;73550;-86
2023/05/07 05:19:23;;;;;;;10.50;2.00;;;;;;;15.21;34.43;101598.48;106211;1260;62646;-85
2023/05/07 05:21:50;;;;;;;4.90;1.60;;;;;;;15.55;34.27;101594.88;106307;1258;61969;-85
2023/05/07 05:24:18;;;;;;;4.90;1.80;;;;;;;15.94;33.45;101600.98;106256;1254;75084;-85
2023/05/07 05:26:45;;;;;;;5.80;1.60;;;;;;;16.32;32.27;101600.17;106359;1254;65804;-86
2023/05/07 05:29:12;;;;;;;6.50;1.90;;;;;;;16.56;31.91;101603.08;106220;1258;73610;-84
2023/05/07 05:31:41;;;;;;;1.70;1.60;;;;;;;16.80;31.60;101597.56;106255;1258;61382;-87
2023/05/07 05:34:09;;;;;;;3.30;1.50;;;;;;;17.11;31.46;101599.91;106308;1260;63017;-87
2023/05/07 05:36:37;;;;;;;4.50;1.30;;;;;;;17.44;30.85;101599.66;106077;1259;73802;-87
2023/05/07 05:39:04;;;;;;;5.10;1.80;;;;;;;17.66;30.27;101599.86;106383;1260;64544;-87
2023/05/07 05:41:31;;;;;;;5.20;1.90;;;;;;;17.83;30.30;101598.58;106354;1256;74785;-88
2023/05/07 05:43:59;;;;;;;2.40;1.10;;;;;;;18.12;30.14;101594.98;106733;1259;62014;-89
2023/05/07 05:46:27;;;;;;;3.70;1.30;;;;;;;18.44;29.28;101595.03;106492;1260;61887;-88
2023/05/07 05:48:55;;;;;;;4.60;1.20;;;;;;;18.64;29.28;101594.90;106441;1257;75403;-88
2023/05/07 05:51:23;;;;;;;4.40;1.60;;;;;;;18.90;28.51;101590.02;106036;1259;65979;-89
2023/05/07 05:53:50;;;;;;;6.70;1.50;;;;;;;19.05;28.23;101590.95;105985;1254;72584;-88
2023/05/07 05:56:17;;;;;;;13.30;1.90;;;;;;;19.25;27.92;101597.88;106177;1254;62639;-85
2023/05/07 05:58:44;;;;;;;6.50;1.40;;;;;;;19.39;26.76;101591.98;106269;1257;61048;-88
2023/05/07 06:01:11;;;;;;;8.90;2.20;;;;;;;19.40;26.17;101590.54;105932;1259;74727;-86
2023/05/07 06:03:39;;;;;;;5.20;1.40;;;;;;;19.44;26.23;101587.59;105923;1257;65528;-86
2023/05/07 06:06:11;;;;;;;4.30;1.60;;;;;;;19.56;26.65;101586.96;106024;1257;74780;-89
2023/05/07 06:08:38;;;;;;;5.60;1.20;;;;;;;19.77;26.65;101586.29;105890;1256;62469;-88
2023/05/07 06:11:05;;;;;;;6.30;2.10;;;;;;;20.05;25.75;101588.40;105760;1259;62074;-88
2023/05/07 06:13:34;;;;;;;3.90;1.50;;;;;;;20.25;25.83;101576.63;105713;1267;75240;-85
2023/05/07 06:16:01;;;;;;;5.30;1.10;;;;;;;20.48;25.58;101576.61;105619;1260;65947;-88
2023/05/07 06:18:28;;;;;;;7.80;1.50;;;;;;;20.75;25.01;101580.31;105678;1262;73367;-87
2023/05/07 06:20:56;;;;;;;10.30;1.50;;;;;;;20.86;24.35;101586.80;105972;1257;61396;-87
2023/05/07 06:23:25;;;;;;;9.70;1.20;;;;;;;20.82;24.67;101579.89;105988;1259;61110;-85
2023/05/07 06:25:52;;;;;;;4.10;1.20;;;;;;;20.86;24.68;101579.14;106281;1254;74744;-85
2023/05/07 06:28:22;;;;;;;2.40;1.30;;;;;;;20.96;24.51;101581.84;107088;1255;64939;-85
2023/05/07 06:30:50;;;;;;;7.90;1.30;;;;;;;21.05;24.23;101576.16;106915;1258;73622;-87
2023/05/07 06:33:17;;;;;;;4.60;1.20;;;;;;;21.11;24.08;101580.44;105980;1262;61187;-85
2023/05/07 06:35:44;;;;;;;3.40;1.00;;;;;;;21.22;24.25;101579.66;105809;1253;61475;-86
2023/05/07 06:38:12;;;;;;;7.70;1.20;;;;;;;21.46;23.91;101584.27;105802;1260;73678;-86
2023/05/07 06:40:40;;;;;;;4.70;0.90;;;;;;;21.66;24.37;101581.45;105702;1263;65860;-85
2023/05/07 06:43:07;;;;;;;4.10;1.20;;;;;;;21.93;24.24;101580.67;105960;1257;73755;-85
2023/05/07 06:45:57;;;;;;;4.90;1.30;;;;;;;22.26;23.61;101584.95;106120;1259;62161;-87
2023/05/07 06:48:24;;;;;;;2.80;1.10;;;;;;;22.45;23.08;101586.17;106326;1254;62356;-87
2023/05/07 06:50:57;;;;;;;7.10;1.70;;;;;;;22.59;23.19;101584.72;106245;1255;73734;-88
2023/05/07 06:53:25;;;;;;;6.20;1.10;;;;;;;22.63;23.33;101581.77;105860;1260;64525;-91
2023/05/07 06:55:53;;;;;;;3.00;0.90;;;;;;;22.67;22.81;101585.30;106167;1254;73502;-89
2023/05/07 06:58:20;;;;;;;7.80;1.40;;;;;;;22.59;22.43;101590.00;105837;1261;61238;-89
2023/05/07 07:00:47;;;;;;;5.50;1.10;;;;;;;22.50;23.23;101585.48;105672;1255;61125;-89
2023/05/07 07:03:15;;;;;;;3.40;1.60;;;;;;;22.64;23.30;101586.70;106050;1255;74732;-88
2023/05/07 07:05:42;;;;;;;5.40;1.40;;;;;;;22.74;23.14;101592.10;106163;1261;66010;-87
2023/05/07 07:19:54;;;;;;;8.10;1.30;;;;;;;23.39;22.41;101585.67;104400;1285;601130;-85
2023/05/07 07:22:22;;;;;;;8.00;1.60;;;;;;;23.50;22.40;101584.20;107515;1257;62490;-85
2023/05/07 07:24:50;;;;;;;6.60;0.90;;;;;;;23.65;21.88;101582.20;108514;1256;61345;-84
2023/05/07 07:27:18;;;;;;;1.90;0.90;;;;;;;23.62;21.64;101578.08;108027;1256;73227;-87
2023/05/07 07:29:45;;;;;;;2.90;1.20;;;;;;;23.46;22.10;101577.47;105975;1257;64661;-86
2023/05/07 07:32:12;;;;;;;2.20;1.30;;;;;;;23.36;22.22;101574.86;105801;1257;74563;-87
2023/05/07 07:34:40;;;;;;;2.80;1.30;;;;;;;23.25;22.27;101575.80;105434;1254;852546;-89
2023/05/07 07:37:07;;;;;;;6.10;0.70;;;;;;;23.28;22.14;101570.86;106119;1254;62389;-89
2023/05/07 07:39:37;;;;;;;1.70;1.10;;;;;;;23.20;22.30;101570.02;105913;1254;73128;-89
2023/05/07 07:42:05;;;;;;;5.30;0.90;;;;;;;23.11;22.80;101565.40;105873;1254;65066;-88
2023/05/07 07:44:32;;;;;;;5.80;1.00;;;;;;;23.16;22.97;101561.36;106008;1257;74840;-88
2023/05/07 07:47:04;;;;;;;4.70;1.40;;;;;;;23.36;23.25;101561.64;105912;1254;61078;-86
2023/05/07 07:49:32;;;;;;;2.80;0.70;;;;;;;23.68;23.19;101555.68;105851;1259;61039;-88
2023/05/07 07:52:02;;;;;;;3.20;1.00;;;;;;;24.11;22.32;101551.06;105622;1260;75320;-90
2023/05/07 07:54:30;;;;;;;3.40;1.00;;;;;;;24.37;22.04;101553.02;105855;1260;66290;-87
2023/05/07 07:56:57;;;;;;;1.40;1.10;;;;;;;24.51;21.94;101554.10;105975;1255;73874;-88
2023/05/07 07:59:25;;;;;;;4.70;1.10;;;;;;;24.57;21.44;101552.23;106107;1258;62304;-88
2023/05/07 08:01:55;;;;;;;10.60;2.20;;;;;;;24.52;21.37;101544.02;106467;1259;61201;-90
2023/05/07 08:04:23;;;;;;;1.80;0.90;;;;;;;24.53;21.73;101546.04;106022;1254;73657;-88
2023/05/07 08:06:50;;;;;;;2.10;1.20;;;;;;;24.70;22.04;101545.40;106029;1258;65952;-87
2023/05/07 08:09:17;;;;;;;1.90;0.90;;;;;;;24.97;21.72;101550.86;106405;1260;74536;-89
2023/05/07 08:11:45;;;;;;;5.60;1.20;;;;;;;24.99;21.14;101545.46;106181;1254;60986;-89
2023/05/07 08:14:13;;;;;;;5.00;0.80;;;;;;;24.86;21.21;101542.81;106224;1254;62313;-89
2023/05/07 08:16:42;;;;;;;4.20;1.30;;;;;;;24.76;21.28;101541.54;105954;1254;74706;-88
2023/05/07 08:19:09;;;;;;;1.90;1.00;;;;;;;24.78;20.90;101544.46;105846;1254;63206;-88
2023/05/07 08:21:40;;;;;;;2.60;0.90;;;;;;;24.80;21.73;101539.27;106232;1259;73698;-89
2023/05/07 08:24:08;;;;;;;2.60;1.00;;;;;;;24.95;21.23;101535.33;106065;1254;62037;-91
2023/05/07 08:26:36;;;;;;;2.60;0.70;;;;;;;25.07;20.39;101538.92;105970;1254;62526;-88
2023/05/07 08:29:04;;;;;;;4.40;0.80;;;;;;;24.89;20.36;101536.23;106015;1259;74992;-88
2023/05/07 08:31:31;;;;;;;4.10;1.00;;;;;;;24.64;20.83;101530.94;106021;1252;66096;-84
2023/05/07 08:33:58;;;;;;;3.30;0.80;;;;;;;24.49;21.06;101535.08;106114;1258;74837;-87
2023/05/07 08:36:25;;;;;;;1.80;0.70;;;;;;;24.42;20.47;101533.77;106001;1259;61970;-87
2023/05/07 08:38:53;;;;;;;4.00;1.20;;;;;;;24.31;20.59;101530.92;106151;1256;61556;-90
2023/05/07 08:41:20;;;;;;;2.20;1.00;;;;;;;24.09;20.65;101525.37;106061;1254;74057;-87
2023/05/07 08:43:50;;;;;;;4.10;0.90;;;;;;;24.03;20.70;101528.86;105983;1254;65674;-87
2023/05/07 08:46:21;;;;;;;4.20;0.70;;;;;;;23.92;20.33;101527.46;106071;1258;74831;-89
2023/05/07 08:48:50;;;;;;;2.00;1.00;;;;;;;23.80;20.90;101528.95;106260;1254;61614;-88
2023/05/07 08:51:20;;;;;;;4.50;1.80;;;;;;;23.79;21.07;101529.67;106164;1256;60908;-87
2023/05/07 08:53:48;;;;;;;2.50;0.50;;;;;;;23.78;20.90;101529.77;106189;1258;74736;-87
2023/05/07 08:56:20;;;;;;;4.90;1.00;;;;;;;23.83;21.93;101529.33;106375;1254;65234;-87
2023/05/07 08:58:50;;;;;;;0.70;0.70;;;;;;;23.99;20.94;101525.23;106316;1253;73244;-86
2023/05/07 09:01:17;;;;;;;2.10;1.70;;;;;;;23.98;20.59;101519.35;106209;1259;60977;-87
2023/05/07 09:03:46;;;;;;;4.20;1.30;;;;;;;23.99;20.52;101520.39;106504;1256;61524;-86
2023/05/07 09:06:18;;;;;;;2.20;0.80;;;;;;;24.05;20.06;101527.83;106138;1254;74784;-87
2023/05/07 09:08:52;;;;;;;1.00;0.80;;;;;;;24.02;20.55;101514.77;106504;1258;65792;-87
2023/05/07 09:11:23;;;;;;;1.40;1.00;;;;;;;24.12;20.64;101508.98;106252;1254;72665;-88
2023/05/07 09:13:55;;;;;;;2.40;1.00;;;;;;;24.22;20.20;101510.14;106600;1253;61795;-87
2023/05/07 09:16:25;;;;;;;3.10;1.20;;;;;;;24.13;20.29;101512.52;105966;1259;61523;-88
2023/05/07 09:18:53;;;;;;;2.50;1.10;;;;;;;24.16;20.03;101516.45;106121;1253;74048;-87
2023/05/07 09:21:22;;;;;;;2.30;0.90;;;;;;;24.28;18.84;101512.91;105886;1254;64706;-88
2023/05/07 09:23:51;;;;;;;1.70;0.80;;;;;;;24.21;19.09;101513.45;106302;1256;73878;-85
2023/05/07 09:26:23;;;;;;;1.90;1.20;;;;;;;24.09;19.57;101508.66;107610;1255;61233;-89
2023/05/07 09:28:51;;;;;;;6.70;5.40;;;;;;;24.02;19.49;101504.90;106703;1253;61261;-85
2023/05/07 09:31:18;;;;;;;2.80;0.80;;;;;;;23.93;19.09;101504.34;105756;1255;75130;-86
2023/05/07 09:33:48;;;;;;;4.00;0.80;;;;;;;23.89;19.68;101496.95;106124;1253;65967;-87
2023/05/07 09:36:15;;;;;;;5.70;1.40;;;;;;;23.87;19.85;101502.67;106494;1253;73649;-88
2023/05/07 09:38:44;;;;;;;4.70;1.00;;;;;;;23.91;19.63;101503.27;106089;1259;62172;-88
2023/05/07 09:41:12;;;;;;;2.50;0.70;;;;;;;23.90;19.81;101508.74;106103;1253;62714;-88
2023/05/07 09:43:44;;;;;;;6.80;1.40;;;;;;;23.94;19.21;101500.64;106182;1255;75431;-87
2023/05/07 09:46:14;;;;;;;4.70;0.90;;;;;;;23.93;19.56;101495.81;106080;1253;64775;-87
2023/05/07 09:48:45;;;;;;;5.20;0.90;;;;;;;23.96;19.23;101494.19;105922;1255;73272;-86
2023/05/07 09:51:33;;;;;;;3.80;0.90;;;;;;;23.88;19.49;101498.11;106265;1253;62400;-89
2023/05/07 09:54:02;;;;;;;2.00;0.90;;;;;;;23.72;19.28;101499.19;106000;1262;61182;-89
2023/05/07 09:56:31;;;;;;;2.60;1.00;;;;;;;23.67;19.65;101495.01;106315;1254;73946;-88
2023/05/07 09:59:01;;;;;;;1.80;1.00;;;;;;;23.71;19.77;101502.45;105889;1262;65763;-85
2023/05/07 10:01:31;;;;;;;3.30;1.10;;;;;;;23.83;19.18;101492.76;105674;1262;74796;-88
2023/05/07 10:03:58;;;;;;;5.60;1.50;;;;;;;23.96;19.36;101490.47;105802;1254;61569;-88
2023/05/07 10:06:25;;;;;;;4.80;1.10;;;;;;;24.07;19.35;101489.68;106146;1254;62254;-89
2023/05/07 10:08:52;;;;;;;2.40;0.80;;;;;;;24.12;19.00;101493.67;106063;1254;73992;-87
2023/05/07 10:11:20;;;;;;;1.80;0.80;;;;;;;24.13;19.28;101494.79;105993;1253;65861;-88
2023/05/07 10:13:47;;;;;;;2.20;1.00;;;;;;;24.15;18.74;101489.07;106442;1262;73700;-89
2023/05/07 10:16:15;;;;;;;4.90;1.40;;;;;;;24.25;18.97;101491.59;106253;1253;61049;-89
2023/05/07 10:18:45;;;;;;;4.00;0.90;;;;;;;24.32;18.29;101489.59;106196;1254;61198;-88
2023/05/07 10:21:20;;;;;;;1.50;0.80;;;;;;;24.23;18.12;101483.73;106010;1252;73952;-87
2023/05/07 10:23:51;;;;;;;3.60;0.70;;;;;;;24.15;18.65;101482.80;106011;1256;65496;-85
2023/05/07 10:26:18;;;;;;;4.00;1.00;;;;;;;24.12;19.12;101488.08;106057;1256;74421;-88
2023/05/07 10:28:49;;;;;;;2.80;0.70;;;;;;;24.05;18.73;101485.99;105794;1254;61144;-87
2023/05/07 10:31:48;;;;;;;3.60;1.20;;;;;;;23.93;19.12;101481.64;105790;1254;62377;-87
2023/05/07 10:34:21;;;;;;;2.70;0.70;;;;;;;23.96;18.61;101480.14;106313;1254;72953;-88
2023/05/07 10:36:48;;;;;;;3.50;1.10;;;;;;;24.02;18.96;101480.59;106064;1253;66290;-89
2023/05/07 10:39:15;;;;;;;1.80;0.90;;;;;;;24.03;18.82;101484.64;105782;1259;73590;-91
2023/05/07 10:41:42;;;;;;;3.60;1.20;;;;;;;24.04;18.94;101482.67;105767;1256;61362;-85
2023/05/07 10:44:09;;;;;;;2.40;1.00;;;;;;;24.14;19.03;101480.55;105649;1259;61218;-89
2023/05/07 10:46:36;;;;;;;4.20;1.00;;;;;;;24.31;19.01;101477.34;105917;1252;73802;-86
2023/05/07 10:49:16;;;;;;;7.00;0.80;;;;;;;24.42;19.14;101478.75;106006;1257;65930;-87
2023/05/07 10:52:18;;;;;;;7.70;1.00;;;;;;;24.33;19.20;101475.00;106376;1256;72950;-85
2023/05/07 10:55:14;;;;;;;3.40;1.00;;;;;;;24.28;19.26;101472.30;105882;1255;61434;-88
2023/05/07 10:57:42;;;;;;;5.10;1.40;;;;;;;24.39;19.42;101467.98;106000;1256;61233;-89
2023/05/07 11:00:23;;;;;;;5.20;1.10;;;;;;;24.48;18.87;101470.79;105984;1256;74798;-90
2023/05/07 11:03:06;;;;;;;1.40;0.80;;;;;;;24.28;18.61;101468.59;105995;1253;66259;-84
2023/05/07 11:05:48;;;;;;;3.20;0.70;;;;;;;24.17;18.72;101463.31;105833;1253;73659;-87
2023/05/07 11:08:23;;;;;;;2.50;0.90;;;;;;;24.13;19.07;101457.27;105898;1251;61574;-88
2023/05/07 11:11:01;;;;;;;2.70;0.70;;;;;;;24.08;19.28;101457.44;105963;1257;61197;-86
2023/05/07 11:13:45;;;;;;;2.70;0.80;;;;;;;24.10;19.26;101449.60;106063;1255;73709;-89
2023/05/07 11:16:24;;;;;;;2.50;1.00;;;;;;;24.14;20.08;101441.59;106014;1254;64448;-86
2023/05/07 11:18:58;;;;;;;2.70;0.90;;;;;;;24.30;19.77;101442.92;106100;1254;72844;-87
2023/05/07 11:21:41;;;;;;;3.10;1.00;;;;;;;24.37;19.57;101434.20;106126;1255;61132;-87
2023/05/07 11:24:23;;;;;;;8.90;1.00;;;;;;;24.43;18.52;101433.05;106366;1253;62547;-90
2023/05/07 11:27:10;;;;;;;5.80;1.50;;;;;;;24.18;18.05;101428.16;106548;1253;73915;-89
2023/05/07 11:29:41;;;;;;;4.80;1.20;;;;;;;23.77;18.38;101433.27;107285;1258;65685;-89
2023/05/07 11:32:15;;;;;;;4.20;0.80;;;;;;;23.41;18.98;101423.77;106659;1254;74470;-88
2023/05/07 11:34:51;;;;;;;3.40;0.80;;;;;;;23.20;19.01;101418.18;106040;1254;61112;-87
2023/05/07 11:37:19;;;;;;;2.50;1.00;;;;;;;23.06;19.28;101418.95;107189;1257;61972;-86
2023/05/07 11:40:06;;;;;;;1.20;0.70;;;;;;;22.86;18.99;101418.49;105724;1257;75814;-86
2023/05/07 11:42:35;;;;;;;1.70;0.80;;;;;;;22.57;19.45;101411.92;105881;1254;65929;-85
2023/05/07 11:45:02;;;;;;;3.00;0.90;;;;;;;22.22;20.10;101408.45;105867;1257;73911;-87
2023/05/07 11:47:30;;;;;;;2.10;1.10;;;;;;;21.82;20.32;101407.50;105890;1259;62468;-87